KMGC

Michigan City Municipal-Phillips Field Airport

Michigan City, Indiana, USA
METAR KMGC 160115Z AUTO 02003KT 10SM CLR 02/M02 A3014 RMK AO2
Observed Flight Rules
Dec-16 @ 01:15 UTC (12 minutes ago) Visual Flight Rules
Wind Visibility Clouds
20° at 3 knots 10 miles
  • Clear skies
Temperatures Readings
Current 2°C / 36°F
Dewpoint -2°C / 28°F
Humidity 75%
Altimeter 30.14" Hg
Pressure 1021 hPa
Elevation 200
METAR KMGC 160115Z AUTO 02003KT 10SM CLR 02/M02 A3014 RMK AO2
Observed Flight Rules
Dec-16 @ 01:15 UTC
(12 minutes ago)
VFR
Wind Visibility
20° at 3 knots 10 miles
Clouds
  • Clear skies
Temperature Dewpoint
2°C / 36°F -2°C / 28°F
Humidity Altimeter Pressure
75% 30.14" Hg 1021 hPa